Main page
METAR-TAF:

METAR-TAF

Airports :

Exeter, England

Exeter Airport

latitude: 50-44N, longitude: 003-25W, elevation: 30 m

Current weather observation

The report was made 35 minutes ago, at 22:50 UTC
Wind 12 kt from the South/Southwest
Temperature 16°C
Humidity 88%
Pressure 1011 hPa
Visibility 10 km or more
Few clouds at a height of 2500 ft

METAR: EGTE 172250Z 21012KT 9999 FEW025 16/14 Q1011

Time: 00:25 (23:25 UTC)

Forecast

The report was made 3 hours and 26 minutes ago, at 19:59 UTC
Forecast valid from 17 at 21 UTC to 18 at 01 UTC
Wind 10 kt from the Southwest
Visibility 10 km or more
Scattered clouds at a height of 2500 ft

TAF: EGTE 171959Z 1721/1801 22010KT 9999 SCT025

Weather observations and forecasts of more than 4000 airports (METAR and TAF reports).

The available stations are represented by yellow and red dots on the map.

Hover mouse over dot to see the name of the station.

Then click to see weather observations and forecasts.

To change the map : click on the green buttons with a black cross to zoom in, on the green button with a dash to zoom out, or on the green arrows for adjacent maps.


METAR-TAF: